sensor_id;sensor_type;location;lat;lon;timestamp;pressure;altitude;pressure_sealevel;temperature;humidity
69058;BME280;56128;37.534;-122.308;2024-02-21T00:01:08;101501.91;;;13.08;100.00
69058;BME280;56128;37.534;-122.308;2024-02-21T00:03:34;101512.00;;;13.29;100.00
69058;BME280;56128;37.534;-122.308;2024-02-21T00:06:00;101516.16;;;13.33;100.00
69058;BME280;56128;37.534;-122.308;2024-02-21T00:08:26;101532.84;;;13.38;100.00
69058;BME280;56128;37.534;-122.308;2024-02-21T00:10:52;101525.81;;;13.60;100.00
69058;BME280;56128;37.534;-122.308;2024-02-21T00:13:18;101517.13;;;13.56;100.00
69058;BME280;56128;37.534;-122.308;2024-02-21T00:15:44;101519.13;;;13.77;100.00
69058;BME280;56128;37.534;-122.308;2024-02-21T00:18:10;101513.72;;;13.54;100.00
69058;BME280;56128;37.534;-122.308;2024-02-21T00:20:36;101521.66;;;13.56;100.00
69058;BME280;56128;37.534;-122.308;2024-02-21T00:23:03;101519.25;;;13.75;100.00
69058;BME280;56128;37.534;-122.308;2024-02-21T00:25:29;101511.22;;;13.40;100.00
69058;BME280;56128;37.534;-122.308;2024-02-21T00:27:55;101501.09;;;13.19;100.00
69058;BME280;56128;37.534;-122.308;2024-02-21T00:30:21;101489.75;;;13.27;100.00
69058;BME280;56128;37.534;-122.308;2024-02-21T00:32:47;101498.56;;;13.29;100.00
69058;BME280;56128;37.534;-122.308;2024-02-21T00:35:14;101500.16;;;13.31;100.00
69058;BME280;56128;37.534;-122.308;2024-02-21T00:37:40;101486.81;;;13.30;100.00
69058;BME280;56128;37.534;-122.308;2024-02-21T00:40:09;101487.34;;;13.35;100.00
69058;BME280;56128;37.534;-122.308;2024-02-21T00:42:36;101480.03;;;13.37;100.00
69058;BME280;56128;37.534;-122.308;2024-02-21T00:45:02;101478.25;;;13.25;100.00
69058;BME280;56128;37.534;-122.308;2024-02-21T00:47:28;101486.81;;;13.30;100.00
69058;BME280;56128;37.534;-122.308;2024-02-21T00:49:55;101482.19;;;13.32;100.00
69058;BME280;56128;37.534;-122.308;2024-02-21T00:52:21;101499.09;;;13.10;100.00
69058;BME280;56128;37.534;-122.308;2024-02-21T00:54:47;101491.94;;;12.49;100.00
69058;BME280;56128;37.534;-122.308;2024-02-21T00:57:14;101486.06;;;12.31;100.00
69058;BME280;56128;37.534;-122.308;2024-02-21T00:59:41;101486.41;;;12.13;100.00
69058;BME280;56128;37.534;-122.308;2024-02-21T01:02:07;101492.88;;;11.98;100.00
69058;BME280;56128;37.534;-122.308;2024-02-21T01:04:34;101495.72;;;11.82;100.00
69058;BME280;56128;37.534;-122.308;2024-02-21T01:07:01;101490.47;;;11.93;100.00
69058;BME280;56128;37.534;-122.308;2024-02-21T01:09:27;101494.59;;;11.99;100.00
69058;BME280;56128;37.534;-122.308;2024-02-21T01:11:53;101493.47;;;11.76;100.00
69058;BME280;56128;37.534;-122.308;2024-02-21T01:14:19;101483.72;;;11.88;100.00
69058;BME280;56128;37.534;-122.308;2024-02-21T01:16:45;101489.75;;;11.91;100.00
69058;BME280;56128;37.534;-122.308;2024-02-21T01:19:12;101485.22;;;11.92;100.00
69058;BME280;56128;37.534;-122.308;2024-02-21T01:21:38;101492.88;;;11.98;100.00
69058;BME280;56128;37.534;-122.308;2024-02-21T01:24:04;101487.81;;;11.80;100.00
69058;BME280;56128;37.534;-122.308;2024-02-21T01:26:30;101481.34;;;11.83;100.00
69058;BME280;56128;37.534;-122.308;2024-02-21T01:28:56;101484.91;;;11.70;100.00
69058;BME280;56128;37.534;-122.308;2024-02-21T01:31:22;101483.63;;;11.76;100.00
69058;BME280;56128;37.534;-122.308;2024-02-21T01:33:49;101495.31;;;11.62;100.00
69058;BME280;56128;37.534;-122.308;2024-02-21T01:36:15;101497.44;;;11.57;100.00
69058;BME280;56128;37.534;-122.308;2024-02-21T01:38:41;101488.22;;;11.48;100.00
69058;BME280;56128;37.534;-122.308;2024-02-21T01:41:07;101495.63;;;11.58;100.00
69058;BME280;56128;37.534;-122.308;2024-02-21T01:43:33;101491.03;;;11.60;100.00
69058;BME280;56128;37.534;-122.308;2024-02-21T01:46:00;101496.03;;;11.51;100.00
69058;BME280;56128;37.534;-122.308;2024-02-21T01:48:27;101507.72;;;11.50;100.00
69058;BME280;56128;37.534;-122.308;2024-02-21T01:50:54;101503.97;;;11.53;100.00
69058;BME280;56128;37.534;-122.308;2024-02-21T01:53:27;101499.91;;;11.47;100.00
69058;BME280;56128;37.534;-122.308;2024-02-21T01:55:55;101502.88;;;11.43;100.00
69058;BME280;56128;37.534;-122.308;2024-02-21T01:58:22;101515.97;;;11.47;100.00
69058;BME280;56128;37.534;-122.308;2024-02-21T02:00:49;101509.66;;;11.48;100.00
69058;BME280;56128;37.534;-122.308;2024-02-21T02:03:16;101512.00;;;11.53;100.00
69058;BME280;56128;37.534;-122.308;2024-02-21T02:05:51;101512.34;;;11.48;100.00
69058;BME280;56128;37.534;-122.308;2024-02-21T02:08:19;101511.47;;;11.48;100.00
69058;BME280;56128;37.534;-122.308;2024-02-21T02:10:46;101513.06;;;11.50;100.00
69058;BME280;56128;37.534;-122.308;2024-02-21T02:13:12;101528.41;;;11.48;100.00
69058;BME280;56128;37.534;-122.308;2024-02-21T02:15:45;101513.28;;;11.47;100.00
69058;BME280;56128;37.534;-122.308;2024-02-21T02:18:13;101518.00;;;11.44;100.00
69058;BME280;56128;37.534;-122.308;2024-02-21T02:20:39;101516.69;;;11.36;100.00
69058;BME280;56128;37.534;-122.308;2024-02-21T02:25:36;101526.44;;;11.25;100.00
69058;BME280;56128;37.534;-122.308;2024-02-21T02:28:06;101532.75;;;11.24;100.00
69058;BME280;56128;37.534;-122.308;2024-02-21T02:30:36;101531.03;;;11.23;100.00
69058;BME280;56128;37.534;-122.308;2024-02-21T02:33:04;101523.41;;;11.29;100.00
69058;BME280;56128;37.534;-122.308;2024-02-21T02:35:31;101527.50;;;11.22;100.00
69058;BME280;56128;37.534;-122.308;2024-02-21T02:37:57;101531.47;;;11.29;100.00
69058;BME280;56128;37.534;-122.308;2024-02-21T02:40:24;101538.47;;;11.32;100.00
69058;BME280;56128;37.534;-122.308;2024-02-21T02:42:51;101536.63;;;11.32;100.00
69058;BME280;56128;37.534;-122.308;2024-02-21T02:45:21;101541.34;;;11.29;100.00
69058;BME280;56128;37.534;-122.308;2024-02-21T02:47:52;101538.94;;;11.24;100.00
69058;BME280;56128;37.534;-122.308;2024-02-21T02:50:23;101545.47;;;11.20;100.00
69058;BME280;56128;37.534;-122.308;2024-02-21T02:52:49;101544.81;;;11.16;100.00
69058;BME280;56128;37.534;-122.308;2024-02-21T02:55:16;101550.19;;;11.16;100.00
69058;BME280;56128;37.534;-122.308;2024-02-21T02:57:42;101554.28;;;11.22;100.00
69058;BME280;56128;37.534;-122.308;2024-02-21T03:00:11;101551.88;;;11.04;100.00
69058;BME280;56128;37.534;-122.308;2024-02-21T03:02:39;101561.13;;;11.13;100.00
69058;BME280;56128;37.534;-122.308;2024-02-21T03:05:25;101567.03;;;11.18;100.00
69058;BME280;56128;37.534;-122.308;2024-02-21T03:07:51;101556.50;;;11.15;100.00
69058;BME280;56128;37.534;-122.308;2024-02-21T03:10:18;101562.41;;;11.20;100.00
69058;BME280;56128;37.534;-122.308;2024-02-21T03:12:44;101556.09;;;11.21;100.00
69058;BME280;56128;37.534;-122.308;2024-02-21T03:15:11;101562.31;;;11.22;100.00
69058;BME280;56128;37.534;-122.308;2024-02-21T03:17:37;101565.84;;;11.23;100.00
69058;BME280;56128;37.534;-122.308;2024-02-21T03:20:04;101558.22;;;11.16;100.00
69058;BME280;56128;37.534;-122.308;2024-02-21T03:22:32;101553.63;;;11.18;100.00
69058;BME280;56128;37.534;-122.308;2024-02-21T03:24:58;101565.06;;;11.20;100.00
69058;BME280;56128;37.534;-122.308;2024-02-21T03:27:24;101563.56;;;11.16;100.00
69058;BME280;56128;37.534;-122.308;2024-02-21T03:29:50;101563.56;;;11.16;100.00
69058;BME280;56128;37.534;-122.308;2024-02-21T03:32:17;101564.63;;;11.14;100.00
69058;BME280;56128;37.534;-122.308;2024-02-21T03:34:43;101571.06;;;11.11;100.00
69058;BME280;56128;37.534;-122.308;2024-02-21T03:37:09;101567.44;;;11.12;100.00
69058;BME280;56128;37.534;-122.308;2024-02-21T03:39:35;101573.06;;;11.08;100.00
69058;BME280;56128;37.534;-122.308;2024-02-21T03:42:02;101579.59;;;11.03;100.00
69058;BME280;56128;37.534;-122.308;2024-02-21T03:44:31;101582.38;;;11.02;100.00
69058;BME280;56128;37.534;-122.308;2024-02-21T03:46:58;101586.19;;;10.98;100.00
69058;BME280;56128;37.534;-122.308;2024-02-21T03:49:24;101587.91;;;10.99;100.00
69058;BME280;56128;37.534;-122.308;2024-02-21T03:51:51;101582.78;;;10.96;100.00
69058;BME280;56128;37.534;-122.308;2024-02-21T03:54:17;101594.56;;;10.93;100.00
69058;BME280;56128;37.534;-122.308;2024-02-21T03:56:43;101582.22;;;10.91;100.00
69058;BME280;56128;37.534;-122.308;2024-02-21T03:59:09;101576.88;;;10.91;100.00
69058;BME280;56128;37.534;-122.308;2024-02-21T04:01:35;101585.09;;;10.87;100.00
69058;BME280;56128;37.534;-122.308;2024-02-21T04:04:02;101589.78;;;10.84;100.00
69058;BME280;56128;37.534;-122.308;2024-02-21T04:06:28;101581.66;;;10.85;100.00
69058;BME280;56128;37.534;-122.308;2024-02-21T04:08:55;101586.25;;;10.83;100.00
69058;BME280;56128;37.534;-122.308;2024-02-21T04:11:21;101588.03;;;10.83;100.00
69058;BME280;56128;37.534;-122.308;2024-02-21T04:13:47;101586.13;;;10.85;100.00
69058;BME280;56128;37.534;-122.308;2024-02-21T04:16:16;101583.34;;;10.86;100.00
69058;BME280;56128;37.534;-122.308;2024-02-21T04:18:42;101585.09;;;10.87;100.00
69058;BME280;56128;37.534;-122.308;2024-02-21T04:21:09;101597.31;;;10.92;100.00
69058;BME280;56128;37.534;-122.308;2024-02-21T04:23:35;101600.66;;;10.95;100.00
69058;BME280;56128;37.534;-122.308;2024-02-21T04:26:01;101604.19;;;10.96;100.00
69058;BME280;56128;37.534;-122.308;2024-02-21T04:28:28;101613.75;;;11.00;100.00
69058;BME280;56128;37.534;-122.308;2024-02-21T04:30:54;101612.78;;;11.01;100.00
69058;BME280;56128;37.534;-122.308;2024-02-21T04:33:20;101607.44;;;11.01;100.00
69058;BME280;56128;37.534;-122.308;2024-02-21T04:35:46;101605.72;;;11.00;100.00
69058;BME280;56128;37.534;-122.308;2024-02-21T04:38:13;101609.16;;;11.02;100.00
69058;BME280;56128;37.534;-122.308;2024-02-21T04:40:40;101618.59;;;11.08;100.00
69058;BME280;56128;37.534;-122.308;2024-02-21T04:43:06;101624.63;;;11.11;100.00
69058;BME280;56128;37.534;-122.308;2024-02-21T04:45:32;101623.84;;;11.09;100.00
69058;BME280;56128;37.534;-122.308;2024-02-21T04:47:59;101618.59;;;11.08;100.00
69058;BME280;56128;37.534;-122.308;2024-02-21T04:50:25;101624.47;;;11.00;100.00
69058;BME280;56128;37.534;-122.308;2024-02-21T04:52:51;101616.53;;;10.98;100.00
69058;BME280;56128;37.534;-122.308;2024-02-21T04:55:17;101620.06;;;10.99;100.00
69058;BME280;56128;37.534;-122.308;2024-02-21T04:57:43;101624.97;;;10.92;100.00
69058;BME280;56128;37.534;-122.308;2024-02-21T05:00:10;101619.88;;;10.87;100.00
69058;BME280;56128;37.534;-122.308;2024-02-21T05:02:36;101631.75;;;10.83;100.00
69058;BME280;56128;37.534;-122.308;2024-02-21T05:05:02;101640.94;;;10.79;100.00
69058;BME280;56128;37.534;-122.308;2024-02-21T05:07:28;101637.59;;;10.76;100.00
69058;BME280;56128;37.534;-122.308;2024-02-21T05:09:55;101647.38;;;10.77;100.00
69058;BME280;56128;37.534;-122.308;2024-02-21T05:12:21;101641.50;;;10.70;100.00
69058;BME280;56128;37.534;-122.308;2024-02-21T05:14:47;101650.88;;;10.63;100.00
69058;BME280;56128;37.534;-122.308;2024-02-21T05:17:13;101645.94;;;10.57;100.00
69058;BME280;56128;37.534;-122.308;2024-02-21T05:19:39;101644.38;;;10.52;100.00
69058;BME280;56128;37.534;-122.308;2024-02-21T05:22:05;101649.06;;;10.49;100.00
69058;BME280;56128;37.534;-122.308;2024-02-21T05:24:31;101651.84;;;10.47;100.00
69058;BME280;56128;37.534;-122.308;2024-02-21T05:26:57;101655.47;;;10.46;100.00
69058;BME280;56128;37.534;-122.308;2024-02-21T05:29:24;101658.34;;;10.43;100.00
69058;BME280;56128;37.534;-122.308;2024-02-21T05:34:20;101656.81;;;10.39;100.00
69058;BME280;56128;37.534;-122.308;2024-02-21T05:36:46;101659.84;;;10.33;100.00
69058;BME280;56128;37.534;-122.308;2024-02-21T05:39:13;101661.91;;;10.28;100.00
69058;BME280;56128;37.534;-122.308;2024-02-21T05:41:40;101656.75;;;10.24;100.00
69058;BME280;56128;37.534;-122.308;2024-02-21T05:44:06;101659.53;;;10.23;100.00
69058;BME280;56128;37.534;-122.308;2024-02-21T05:46:33;101657.97;;;10.19;100.00
69058;BME280;56128;37.534;-122.308;2024-02-21T05:48:59;101664.72;;;10.10;100.00
69058;BME280;56128;37.534;-122.308;2024-02-21T05:51:25;101659.94;;;10.01;100.00
69058;BME280;56128;37.534;-122.308;2024-02-21T05:53:51;101649.72;;;9.93;100.00
69058;BME280;56128;37.534;-122.308;2024-02-21T05:56:17;101646.19;;;9.93;100.00
69058;BME280;56128;37.534;-122.308;2024-02-21T05:58:44;101647.50;;;9.85;100.00
69058;BME280;56128;37.534;-122.308;2024-02-21T06:01:11;101649.50;;;9.82;100.00
69058;BME280;56128;37.534;-122.308;2024-02-21T06:03:37;101650.69;;;9.76;100.00
69058;BME280;56128;37.534;-122.308;2024-02-21T06:06:04;101655.53;;;9.69;100.00
69058;BME280;56128;37.534;-122.308;2024-02-21T06:08:33;101654.28;;;9.61;100.00
69058;BME280;56128;37.534;-122.308;2024-02-21T06:10:59;101660.06;;;9.53;100.00
69058;BME280;56128;37.534;-122.308;2024-02-21T06:13:25;101658.53;;;9.49;100.00
69058;BME280;56128;37.534;-122.308;2024-02-21T06:15:51;101664.38;;;9.39;100.00
69058;BME280;56128;37.534;-122.308;2024-02-21T06:18:18;101668.06;;;9.37;100.00
69058;BME280;56128;37.534;-122.308;2024-02-21T06:20:44;101665.59;;;9.34;100.00
69058;BME280;56128;37.534;-122.308;2024-02-21T06:23:12;101669.22;;;9.33;100.00
69058;BME280;56128;37.534;-122.308;2024-02-21T06:25:39;101671.97;;;9.31;100.00
69058;BME280;56128;37.534;-122.308;2024-02-21T06:28:05;101667.81;;;9.25;100.00
69058;BME280;56128;37.534;-122.308;2024-02-21T06:30:31;101678.75;;;9.21;100.00
69058;BME280;56128;37.534;-122.308;2024-02-21T06:32:57;101681.72;;;9.16;100.00
69058;BME280;56128;37.534;-122.308;2024-02-21T06:35:25;101674.03;;;9.10;100.00
69058;BME280;56128;37.534;-122.308;2024-02-21T06:37:52;101675.91;;;9.08;100.00
69058;BME280;56128;37.534;-122.308;2024-02-21T06:40:23;101676.25;;;9.02;100.00
69058;BME280;56128;37.534;-122.308;2024-02-21T06:42:49;101681.78;;;8.99;100.00
69058;BME280;56128;37.534;-122.308;2024-02-21T06:45:16;101677.53;;;8.94;100.00
69058;BME280;56128;37.534;-122.308;2024-02-21T06:47:43;101676.91;;;8.89;100.00
69058;BME280;56128;37.534;-122.308;2024-02-21T06:50:09;101665.41;;;8.89;100.00
69058;BME280;56128;37.534;-122.308;2024-02-21T06:52:38;101659.53;;;8.82;100.00
69058;BME280;56128;37.534;-122.308;2024-02-21T06:55:04;101667.88;;;8.76;100.00
69058;BME280;56128;37.534;-122.308;2024-02-21T06:57:30;101666.38;;;8.70;100.00
69058;BME280;56128;37.534;-122.308;2024-02-21T06:59:56;101665.69;;;8.67;100.00
69058;BME280;56128;37.534;-122.308;2024-02-21T07:02:23;101671.22;;;8.64;100.00
69058;BME280;56128;37.534;-122.308;2024-02-21T07:04:49;101656.22;;;8.61;100.00
69058;BME280;56128;37.534;-122.308;2024-02-21T07:07:15;101660.69;;;8.60;100.00
69058;BME280;56128;37.534;-122.308;2024-02-21T07:09:41;101659.84;;;8.60;100.00
69058;BME280;56128;37.534;-122.308;2024-02-21T07:12:07;101650.28;;;8.56;100.00
69058;BME280;56128;37.534;-122.308;2024-02-21T07:14:33;101645.09;;;8.53;100.00
69058;BME280;56128;37.534;-122.308;2024-02-21T07:17:00;101639.06;;;8.49;100.00
69058;BME280;56128;37.534;-122.308;2024-02-21T07:19:26;101643.63;;;8.47;100.00
69058;BME280;56128;37.534;-122.308;2024-02-21T07:21:52;101639.16;;;8.48;100.00
69058;BME280;56128;37.534;-122.308;2024-02-21T07:24:18;101647.25;;;8.46;100.00
69058;BME280;56128;37.534;-122.308;2024-02-21T07:26:45;101651.66;;;8.45;100.00
69058;BME280;56128;37.534;-122.308;2024-02-21T07:29:11;101648.09;;;8.47;100.00
69058;BME280;56128;37.534;-122.308;2024-02-21T07:31:44;101657.91;;;8.46;100.00
69058;BME280;56128;37.534;-122.308;2024-02-21T07:34:10;101667.03;;;8.40;100.00
69058;BME280;56128;37.534;-122.308;2024-02-21T07:36:37;101661.78;;;8.39;100.00
69058;BME280;56128;37.534;-122.308;2024-02-21T07:39:04;101665.50;;;8.36;100.00
69058;BME280;56128;37.534;-122.308;2024-02-21T07:41:31;101660.31;;;8.33;100.00
69058;BME280;56128;37.534;-122.308;2024-02-21T07:43:57;101660.56;;;8.28;100.00
69058;BME280;56128;37.534;-122.308;2024-02-21T07:46:23;101659.84;;;8.25;100.00
69058;BME280;56128;37.534;-122.308;2024-02-21T07:48:50;101646.75;;;8.20;100.00
69058;BME280;56128;37.534;-122.308;2024-02-21T07:51:17;101648.50;;;8.21;100.00
69058;BME280;56128;37.534;-122.308;2024-02-21T07:53:44;101656.81;;;8.15;100.00
69058;BME280;56128;37.534;-122.308;2024-02-21T07:56:15;101654.53;;;8.07;100.00
69058;BME280;56128;37.534;-122.308;2024-02-21T07:58:41;101656.41;;;8.05;100.00
69058;BME280;56128;37.534;-122.308;2024-02-21T08:01:08;101653.81;;;8.04;100.00
69058;BME280;56128;37.534;-122.308;2024-02-21T08:03:34;101658.63;;;7.97;100.00
69058;BME280;56128;37.534;-122.308;2024-02-21T08:06:02;101664.97;;;7.94;100.00
69058;BME280;56128;37.534;-122.308;2024-02-21T08:08:29;101666.03;;;7.90;100.00
69058;BME280;56128;37.534;-122.308;2024-02-21T08:10:55;101673.31;;;7.87;100.00
69058;BME280;56128;37.534;-122.308;2024-02-21T08:13:21;101659.31;;;7.83;100.00
69058;BME280;56128;37.534;-122.308;2024-02-21T08:15:48;101664.00;;;7.78;100.00
69058;BME280;56128;37.534;-122.308;2024-02-21T08:18:14;101674.03;;;7.73;100.00
69058;BME280;56128;37.534;-122.308;2024-02-21T08:20:40;101677.66;;;7.72;100.00
69058;BME280;56128;37.534;-122.308;2024-02-21T08:23:06;101675.19;;;7.67;100.00
69058;BME280;56128;37.534;-122.308;2024-02-21T08:25:32;101680.63;;;7.66;100.00
69058;BME280;56128;37.534;-122.308;2024-02-21T08:27:59;101676.06;;;7.68;100.00
69058;BME280;56128;37.534;-122.308;2024-02-21T08:30:25;101670.72;;;7.68;100.00
69058;BME280;56128;37.534;-122.308;2024-02-21T08:32:52;101671.03;;;7.61;100.00
69058;BME280;56128;37.534;-122.308;2024-02-21T08:35:20;101668.44;;;7.60;100.00
69058;BME280;56128;37.534;-122.308;2024-02-21T08:37:48;101668.06;;;7.68;100.00
69058;BME280;56128;37.534;-122.308;2024-02-21T08:40:15;101671.66;;;7.67;100.00
69058;BME280;56128;37.534;-122.308;2024-02-21T08:42:45;101674.31;;;7.67;100.00
69058;BME280;56128;37.534;-122.308;2024-02-21T08:45:11;101671.81;;;7.63;100.00
69058;BME280;56128;37.534;-122.308;2024-02-21T08:47:40;101676.53;;;7.58;100.00
69058;BME280;56128;37.534;-122.308;2024-02-21T08:50:10;101676.03;;;7.50;100.00
69058;BME280;56128;37.534;-122.308;2024-02-21T08:52:36;101669.03;;;7.47;100.00
69058;BME280;56128;37.534;-122.308;2024-02-21T08:55:03;101678.22;;;7.42;100.00
69058;BME280;56128;37.534;-122.308;2024-02-21T08:57:29;101674.81;;;7.38;100.00
69058;BME280;56128;37.534;-122.308;2024-02-21T08:59:55;101673.31;;;7.32;100.00
69058;BME280;56128;37.534;-122.308;2024-02-21T09:02:21;101678.00;;;7.27;100.00
69058;BME280;56128;37.534;-122.308;2024-02-21T09:04:47;101683.19;;;7.30;100.00
69058;BME280;56128;37.534;-122.308;2024-02-21T09:07:13;101679.09;;;7.23;100.00
69058;BME280;56128;37.534;-122.308;2024-02-21T09:09:39;101695.06;;;7.23;100.00
69058;BME280;56128;37.534;-122.308;2024-02-21T09:12:08;101698.81;;;7.19;100.00
69058;BME280;56128;37.534;-122.308;2024-02-21T09:14:37;101695.50;;;7.14;100.00
69058;BME280;56128;37.534;-122.308;2024-02-21T09:17:06;101701.81;;;7.11;100.00
69058;BME280;56128;37.534;-122.308;2024-02-21T09:19:35;101693.91;;;7.10;100.00
69058;BME280;56128;37.534;-122.308;2024-02-21T09:22:01;101690.19;;;7.14;100.00
69058;BME280;56128;37.534;-122.308;2024-02-21T09:24:27;101695.41;;;7.15;100.00
69058;BME280;56128;37.534;-122.308;2024-02-21T09:26:53;101685.72;;;7.14;100.00
69058;BME280;56128;37.534;-122.308;2024-02-21T09:29:19;101695.53;;;7.12;100.00
69058;BME280;56128;37.534;-122.308;2024-02-21T09:31:45;101689.66;;;7.06;100.00
69058;BME280;56128;37.534;-122.308;2024-02-21T09:34:13;101693.25;;;7.05;100.00
69058;BME280;56128;37.534;-122.308;2024-02-21T09:36:39;101708.41;;;7.03;100.00
69058;BME280;56128;37.534;-122.308;2024-02-21T09:39:06;101710.38;;;6.99;100.00
69058;BME280;56128;37.534;-122.308;2024-02-21T09:41:36;101699.00;;;6.95;100.00
69058;BME280;56128;37.534;-122.308;2024-02-21T09:44:06;101702.72;;;6.91;100.00
69058;BME280;56128;37.534;-122.308;2024-02-21T09:47:03;101702.72;;;6.91;100.00
69058;BME280;56128;37.534;-122.308;2024-02-21T09:49:31;101705.34;;;6.93;100.00
69058;BME280;56128;37.534;-122.308;2024-02-21T09:52:05;101710.78;;;6.90;100.00
69058;BME280;56128;37.534;-122.308;2024-02-21T09:54:35;101702.16;;;6.85;100.00
69058;BME280;56128;37.534;-122.308;2024-02-21T09:57:02;101712.94;;;6.81;100.00
69058;BME280;56128;37.534;-122.308;2024-02-21T09:59:31;101709.56;;;6.78;100.00
69058;BME280;56128;37.534;-122.308;2024-02-21T10:01:57;101710.47;;;6.77;100.00
69058;BME280;56128;37.534;-122.308;2024-02-21T10:04:26;101706.38;;;6.70;100.00
69058;BME280;56128;37.534;-122.308;2024-02-21T10:06:54;101710.91;;;6.68;100.00
69058;BME280;56128;37.534;-122.308;2024-02-21T10:09:21;101714.69;;;6.62;100.00
69058;BME280;56128;37.534;-122.308;2024-02-21T10:11:49;101711.31;;;6.58;100.00
69058;BME280;56128;37.534;-122.308;2024-02-21T10:14:16;101708.84;;;6.54;100.00
69058;BME280;56128;37.534;-122.308;2024-02-21T10:16:47;101715.16;;;6.51;100.00
69058;BME280;56128;37.534;-122.308;2024-02-21T10:19:20;101720.44;;;6.53;100.00
69058;BME280;56128;37.534;-122.308;2024-02-21T10:24:30;101720.47;;;6.51;100.00
69058;BME280;56128;37.534;-122.308;2024-02-21T10:27:03;101725.66;;;6.54;100.00
69058;BME280;56128;37.534;-122.308;2024-02-21T10:29:30;101723.13;;;6.51;100.00
69058;BME280;56128;37.534;-122.308;2024-02-21T10:32:07;101723.19;;;6.49;100.00
69058;BME280;56128;37.534;-122.308;2024-02-21T10:34:34;101719.53;;;6.52;100.00
69058;BME280;56128;37.534;-122.308;2024-02-21T10:37:06;101729.34;;;6.52;100.00
69058;BME280;56128;37.534;-122.308;2024-02-21T10:39:33;101727.44;;;6.54;100.00
69058;BME280;56128;37.534;-122.308;2024-02-21T10:42:01;101733.72;;;6.53;100.00
69058;BME280;56128;37.534;-122.308;2024-02-21T10:44:37;101734.66;;;6.52;100.00
69058;BME280;56128;37.534;-122.308;2024-02-21T10:47:10;101740.03;;;6.50;100.00
69058;BME280;56128;37.534;-122.308;2024-02-21T10:49:39;101738.16;;;6.52;100.00
69058;BME280;56128;37.534;-122.308;2024-02-21T10:52:35;101736.50;;;6.49;100.00
69058;BME280;56128;37.534;-122.308;2024-02-21T10:55:19;101729.41;;;6.50;100.00
69058;BME280;56128;37.534;-122.308;2024-02-21T10:57:49;101733.84;;;6.49;100.00
69058;BME280;56128;37.534;-122.308;2024-02-21T11:00:17;101735.66;;;6.49;100.00
69058;BME280;56128;37.534;-122.308;2024-02-21T11:02:46;101738.41;;;6.46;100.00
69058;BME280;56128;37.534;-122.308;2024-02-21T11:05:13;101743.75;;;6.46;100.00
69058;BME280;56128;37.534;-122.308;2024-02-21T11:07:41;101740.34;;;6.42;100.00
69058;BME280;56128;37.534;-122.308;2024-02-21T11:10:22;101744.75;;;6.43;100.00
69058;BME280;56128;37.534;-122.308;2024-02-21T11:12:49;101751.06;;;6.41;100.00
69058;BME280;56128;37.534;-122.308;2024-02-21T11:15:15;101754.78;;;6.37;100.00
69058;BME280;56128;37.534;-122.308;2024-02-21T11:17:41;101757.38;;;6.38;100.00
69058;BME280;56128;37.534;-122.308;2024-02-21T11:20:14;101752.19;;;6.35;100.00
69058;BME280;56128;37.534;-122.308;2024-02-21T11:22:43;101745.88;;;6.38;100.00
69058;BME280;56128;37.534;-122.308;2024-02-21T11:25:10;101751.31;;;6.34;100.00
69058;BME280;56128;37.534;-122.308;2024-02-21T11:27:45;101752.19;;;6.35;100.00
69058;BME280;56128;37.534;-122.308;2024-02-21T11:30:12;101749.47;;;6.37;100.00
69058;BME280;56128;37.534;-122.308;2024-02-21T11:32:41;101747.91;;;6.31;100.00
69058;BME280;56128;37.534;-122.308;2024-02-21T11:35:07;101746.31;;;6.27;100.00
69058;BME280;56128;37.534;-122.308;2024-02-21T11:37:35;101749.97;;;6.24;100.00
69058;BME280;56128;37.534;-122.308;2024-02-21T11:40:06;101746.41;;;6.25;100.00
69058;BME280;56128;37.534;-122.308;2024-02-21T11:42:35;101755.28;;;6.24;100.00
69058;BME280;56128;37.534;-122.308;2024-02-21T11:45:01;101747.31;;;6.24;100.00
69058;BME280;56128;37.534;-122.308;2024-02-21T11:47:31;101744.66;;;6.24;100.00
69058;BME280;56128;37.534;-122.308;2024-02-21T11:49:57;101746.50;;;6.22;100.00
69058;BME280;56128;37.534;-122.308;2024-02-21T11:52:25;101749.13;;;6.24;100.00
69058;BME280;56128;37.534;-122.308;2024-02-21T11:54:51;101750.78;;;6.26;100.00
69058;BME280;56128;37.534;-122.308;2024-02-21T11:57:18;101753.50;;;6.25;100.00
69058;BME280;56128;37.534;-122.308;2024-02-21T11:59:45;101751.72;;;6.25;100.00
69058;BME280;56128;37.534;-122.308;2024-02-21T12:02:13;101755.16;;;6.27;100.00
69058;BME280;56128;37.534;-122.308;2024-02-21T12:04:40;101757.03;;;6.25;100.00
69058;BME280;56128;37.534;-122.308;2024-02-21T12:07:07;101758.81;;;6.25;100.00
69058;BME280;56128;37.534;-122.308;2024-02-21T12:09:34;101754.50;;;6.22;100.00
69058;BME280;56128;37.534;-122.308;2024-02-21T12:12:05;101753.75;;;6.18;100.00
69058;BME280;56128;37.534;-122.308;2024-02-21T12:14:33;101756.41;;;6.18;100.00
69058;BME280;56128;37.534;-122.308;2024-02-21T12:17:01;101758.28;;;6.16;100.00
69058;BME280;56128;37.534;-122.308;2024-02-21T12:19:30;101753.06;;;6.13;100.00
69058;BME280;56128;37.534;-122.308;2024-02-21T12:22:00;101747.72;;;6.15;100.00
69058;BME280;56128;37.534;-122.308;2024-02-21T12:24:28;101752.16;;;6.14;100.00